Village Of Nagog Woods, Massachusetts
Current Conditions -  °F | °C
As of 4:56 PM on Tuesday 25 Nov 2014 (Local Time) from KBED Reporting Station
Clear Clear  
Wind Chill: 53°   Ceiling: Unl
Heat Index: 53°   Visibility: 10mi
Dew Point: 27°   Wind: 5mph
Humidity: 37%   Direction: 230°SW
Pressure: 29.93"   Gusts: NA
Location:  42.52°N, 71.43°W
Report Text: KBED 252156Z 23004KT 10SM CLR 12/M03 A2993 RMK AO2 SLP149 T01171028
Loading
Personal Weather Stations






























Interactive Weather Map New forecast layout! Learn more

10-Day Weather Forecast

Advertisements
Track Severe Weather on mobile